Terminal Aerodrome Forecast
Issued by NWS

Home | Current Version | Previous Version | Text Only | Print | Product List | Glossary On
Versions: 1 2 3 4 5 6 7 8 9 10 11 12 13 14 15 16
000
FTUS45 KVEF 032000 AAA
TAFVGT
TAF AMD
KVGT 032040Z 0321/0418 25009KT P6SM VCSH SCT040 BKN060
      TEMPO 0321/0324 25012G20KT SCT030 BKN050
     FM040100 34012G18KT P6SM FEW060
     FM040600 34015G25KT P6SM SKC=

USA.gov is the U.S. government's official web portal to all federal, state and local government web resources and services.